Flight Track Log - Related Links

Times and Time Zones

All times are in EDT time to prevent confusion due to time zone crossing. See the EJM90 flight status page for this flight to view local times or setup timezone preferences in your user account.

Time Position Orientation Groundspeed Altitude Reporting Facility
EDT Latitude Longitude Course Direction KTS MPH feet Rate Location/Type
Thu 08:02:54 PM 26.4547 -80.0567 310° West 247 284 4,700  Level Miami Center
Thu 08:08:00 PM 26.5988 -80.4150 310° West  Level FlightAware Approximate
Thu 08:09:00 PM 26.8750 -80.4760 310° West 357 411 15,900  Level FlightAware ADS-B
Thu 08:09:42 PM 26.9220 -80.5310 314° West 367 422 15,600 -690 Descending FlightAware ADS-B
Thu 08:10:27 PM 26.9880 -80.5740 330° Northwest 349 402 14,900 -452 Descending FlightAware ADS-B
Thu 08:11:15 PM 27.0610 -80.6150 333° Northwest 358 412 14,900  Level FlightAware ADS-B
Thu 08:12:06 PM 27.1330 -80.6550 334° Northwest 356 410 14,900  Level FlightAware ADS-B
Thu 08:13:00 PM 27.2170 -80.7030 333° Northwest 380 437 14,900  Level FlightAware ADS-B
Thu 08:13:55 PM 27.3070 -80.7530 334° Northwest 415 478 14,900  Level FlightAware ADS-B
Thu 08:14:51 PM 27.3920 -80.8020 333° Northwest 400 460 14,900  Level FlightAware ADS-B
Thu 08:15:28 PM 27.4430 -80.8330 332° Northwest 400 460 14,900  Level FlightAware ADS-B
Thu 08:16:17 PM 27.5120 -80.8740 332° Northwest 400 460 14,900 -743 Level FlightAware ADS-B
Thu 08:19:15 PM 27.8350 -81.0220 338° Northwest 10,900 -884 Descending FlightAware ADS-B
Thu 08:20:35 PM 27.9500 -80.9667 338° Northwest 285 328 11,100 43 Climbing Orlando TRACON
Thu 08:21:35 PM 28.0333 -80.9500 10° North 305 351 11,000 -750 Descending Orlando TRACON
Thu 08:22:35 PM 28.1167 -80.9333 10° North 299 344 9,600 -1,450 Descending Orlando TRACON
Thu 08:23:35 PM 28.2000 -80.9333 360° North 288 331 8,100 -1,450 Descending Orlando TRACON
Thu 08:24:35 PM 28.2667 -80.9167 12° North 287 330 6,700 -1,400 Descending Orlando TRACON
Thu 08:25:35 PM 28.3500 -80.9333 350° North 272 313 5,300 -1,350 Descending Orlando TRACON
Thu 08:26:35 PM 28.4000 -80.9833 319° Northwest 271 312 4,000 -1,300 Descending Orlando TRACON
Thu 08:27:35 PM 28.4833 -81.0167 341° North 276 318 2,700 -650 Descending Orlando TRACON
Thu 08:28:35 PM 28.5333 -81.0500 330° Northwest 270 311 2,700 50 Level Orlando TRACON
Thu 08:29:36 PM 28.6000 -81.1000 327° Northwest 221 254 2,800 -149 Climbing Orlando TRACON
Thu 08:30:36 PM 28.6000 -81.1500 270° West 192 221 2,400 -700 Descending Orlando TRACON
Thu 08:31:36 PM 28.6000 -81.2167 270° West 187 215 1,400 -650 Descending Orlando TRACON
Thu 08:32:36 PM 28.5667 -81.2667 233° Southwest 156 180 1,100 -350 Descending Orlando TRACON
Thu 08:33:36 PM 28.5667 -81.3000 270° West 123 142 700 -400 Descending Orlando TRACON
Thu 08:35:00 PM 28.5333 -81.3167 213° Southwest  Level FlightAware Approximate
Thu 08:42:00 PM 28.5455 -81.3329 213° Southwest  Level Estimated
Thu 08:43:00 PM 28.5455 -81.3329 213° Southwest  Level Estimated
Thu 08:44:00 PM 28.5455 -81.3329 213° Southwest  Level Estimated
Thu 08:45:00 PM 28.5455 -81.3329 213° Southwest  Level Estimated

Login

Don't have an account? Register now (free) for customized features, flight alerts, and more!